createdAt,value
2023-02-13T00:00:34.629Z,5.65
2023-02-13T00:03:01.951Z,5.65
2023-02-13T00:05:28.760Z,5.63
2023-02-13T00:07:55.623Z,5.62
2023-02-13T00:10:22.456Z,5.59
2023-02-13T00:12:49.215Z,5.55
2023-02-13T00:15:16.090Z,5.53
2023-02-13T00:17:42.892Z,5.46
2023-02-13T00:20:11.749Z,5.43
2023-02-13T00:22:39.171Z,5.40
2023-02-13T00:25:07.367Z,5.38
2023-02-13T00:27:34.814Z,5.36
2023-02-13T00:30:02.385Z,5.35
2023-02-13T00:32:29.373Z,5.33
2023-02-13T00:34:56.490Z,5.32
2023-02-13T00:37:23.428Z,5.31
2023-02-13T00:39:52.434Z,5.31
2023-02-13T00:42:20.370Z,5.28
2023-02-13T00:44:47.188Z,5.28
2023-02-13T00:47:14.703Z,5.26
2023-02-13T00:49:41.674Z,5.23
2023-02-13T00:52:08.539Z,5.22
2023-02-13T00:54:35.312Z,5.21
2023-02-13T00:57:02.408Z,5.19
2023-02-13T00:59:29.241Z,5.18
2023-02-13T01:01:56.111Z,5.14
2023-02-13T01:04:22.969Z,5.12
2023-02-13T01:06:49.810Z,5.08
2023-02-13T01:09:16.638Z,5.06
2023-02-13T01:11:43.442Z,5.02
2023-02-13T01:14:10.224Z,5.01
2023-02-13T01:16:37.044Z,4.99
2023-02-13T01:19:05.010Z,4.99
2023-02-13T01:21:31.804Z,5.01
2023-02-13T01:23:58.564Z,4.98
2023-02-13T01:26:25.472Z,4.98
2023-02-13T01:28:54.562Z,4.96
2023-02-13T01:31:22.429Z,4.94
2023-02-13T01:33:50.535Z,4.92
2023-02-13T01:36:21.273Z,4.89
2023-02-13T01:38:48.930Z,4.85
2023-02-13T01:41:15.911Z,4.82
2023-02-13T01:43:52.966Z,4.78
2023-02-13T01:46:46.731Z,4.71
2023-02-13T01:49:23.980Z,4.70
2023-02-13T01:51:55.486Z,4.69
2023-02-13T01:54:31.016Z,4.66
2023-02-13T01:57:11.172Z,4.64
2023-02-13T01:59:49.616Z,4.64
2023-02-13T02:02:17.312Z,4.66
2023-02-13T02:04:47.098Z,4.65
2023-02-13T02:07:25.802Z,4.64
2023-02-13T02:10:01.618Z,4.60
2023-02-13T02:12:31.430Z,4.61
2023-02-13T02:14:59.331Z,4.54
2023-02-13T02:17:30.374Z,4.56
2023-02-13T02:20:47.034Z,4.47
2023-02-13T02:23:45.849Z,4.48
2023-02-13T02:26:49.473Z,4.46
2023-02-13T02:29:43.915Z,4.42
2023-02-13T02:32:24.456Z,4.42
2023-02-13T02:35:01.270Z,4.43
2023-02-13T02:37:52.697Z,4.41
2023-02-13T02:40:32.139Z,4.42
2023-02-13T02:43:09.426Z,4.42
2023-02-13T02:46:20.402Z,4.40
2023-02-13T02:49:22.938Z,4.40
2023-02-13T02:52:15.858Z,4.35
2023-02-13T02:55:08.386Z,4.32
2023-02-13T02:58:34.900Z,4.27
2023-02-13T03:01:24.388Z,4.27
2023-02-13T03:04:10.804Z,4.25
2023-02-13T03:06:49.875Z,4.22
2023-02-13T03:09:42.790Z,4.21
2023-02-13T03:12:28.761Z,4.21
2023-02-13T03:14:55.617Z,4.19
2023-02-13T03:17:41.151Z,4.18
2023-02-13T03:20:57.348Z,4.12
2023-02-13T03:23:55.372Z,4.08
2023-02-13T03:26:56.717Z,4.08
2023-02-13T03:30:08.168Z,4.05
2023-02-13T03:32:52.900Z,4.05
2023-02-13T03:35:41.787Z,4.04
2023-02-13T03:38:51.327Z,3.99
2023-02-13T03:41:25.470Z,4.00
2023-02-13T03:44:22.503Z,3.96
2023-02-13T03:46:53.767Z,3.98
2023-02-13T03:49:48.765Z,3.96
2023-02-13T03:52:35.716Z,3.93
2023-02-13T03:55:36.747Z,3.92
2023-02-13T03:58:32.578Z,3.90
2023-02-13T04:01:03.095Z,3.91
2023-02-13T04:03:43.128Z,3.89
2023-02-13T04:06:32.254Z,3.90
2023-02-13T04:08:59.250Z,3.94
2023-02-13T04:11:39.168Z,3.92
2023-02-13T04:14:17.486Z,3.92
2023-02-13T04:16:57.431Z,3.93
2023-02-13T04:19:26.622Z,3.94
2023-02-13T04:21:59.399Z,3.93
2023-02-13T04:24:28.194Z,3.93
2023-02-13T04:26:56.295Z,3.92
2023-02-13T04:29:24.825Z,3.92
2023-02-13T04:31:52.139Z,3.93
2023-02-13T04:34:19.014Z,3.92
2023-02-13T04:36:46.089Z,3.94
2023-02-13T04:39:12.922Z,3.95
2023-02-13T04:41:39.732Z,3.95
2023-02-13T04:44:06.554Z,3.93
2023-02-13T04:46:33.378Z,3.93
2023-02-13T04:49:00.139Z,3.90
2023-02-13T04:51:27.717Z,3.89
2023-02-13T04:53:54.463Z,3.89
2023-02-13T04:56:21.256Z,3.89
2023-02-13T04:58:48.067Z,3.91
2023-02-13T05:01:17.113Z,3.91
2023-02-13T05:03:44.004Z,3.91
2023-02-13T05:06:10.786Z,3.90
2023-02-13T05:08:37.602Z,3.89
2023-02-13T05:11:04.678Z,3.86
2023-02-13T05:13:31.703Z,3.85
2023-02-13T05:15:58.672Z,3.83
2023-02-13T05:18:25.499Z,3.82
2023-02-13T05:21:11.016Z,3.79
2023-02-13T05:23:37.965Z,3.77
2023-02-13T05:26:04.952Z,3.76
2023-02-13T05:28:50.363Z,3.75
2023-02-13T05:31:17.253Z,3.73
2023-02-13T05:33:44.126Z,3.74
2023-02-13T05:36:10.913Z,3.72
2023-02-13T05:38:37.755Z,3.72
2023-02-13T05:41:04.774Z,3.72
2023-02-13T05:43:31.615Z,3.73
2023-02-13T05:46:07.126Z,3.71
2023-02-13T05:48:34.726Z,3.72
2023-02-13T05:51:02.218Z,3.71
2023-02-13T05:53:29.733Z,3.71
2023-02-13T05:55:56.623Z,3.68
2023-02-13T05:58:23.526Z,3.66
2023-02-13T06:00:50.511Z,3.64
2023-02-13T06:03:17.311Z,3.64
2023-02-13T06:05:44.409Z,3.62
2023-02-13T06:08:11.178Z,3.60
2023-02-13T06:10:38.092Z,3.60
2023-02-13T06:13:05.206Z,3.58
2023-02-13T06:15:32.064Z,3.58
2023-02-13T06:17:58.935Z,3.58
2023-02-13T06:20:25.701Z,3.56
2023-02-13T06:22:53.088Z,3.55
2023-02-13T06:25:20.594Z,3.53
2023-02-13T06:27:48.113Z,3.52
2023-02-13T06:30:16.340Z,3.51
2023-02-13T06:32:43.745Z,3.50
2023-02-13T06:35:10.632Z,3.49
2023-02-13T06:37:37.454Z,3.50
2023-02-13T06:40:05.281Z,3.51
2023-02-13T06:42:32.076Z,3.50
2023-02-13T06:44:59.094Z,3.51
2023-02-13T06:47:25.885Z,3.50
2023-02-13T06:49:52.736Z,3.51
2023-02-13T06:52:21.226Z,3.51
2023-02-13T06:54:48.345Z,3.51
2023-02-13T06:57:15.933Z,3.51
2023-02-13T06:59:43.504Z,3.52
2023-02-13T07:02:11.712Z,3.53
2023-02-13T07:04:38.898Z,3.54
2023-02-13T07:07:05.789Z,3.56
2023-02-13T07:09:32.991Z,3.57
2023-02-13T07:12:04.491Z,3.58
2023-02-13T07:14:31.270Z,3.62
2023-02-13T07:16:58.160Z,3.67
2023-02-13T07:19:24.965Z,3.71
2023-02-13T07:21:52.789Z,3.76
2023-02-13T07:24:19.597Z,3.81
2023-02-13T07:26:46.403Z,3.86
2023-02-13T07:29:13.225Z,3.91
2023-02-13T07:31:40.262Z,3.96
2023-02-13T07:34:07.551Z,4.02
2023-02-13T07:36:34.647Z,4.07
2023-02-13T07:39:01.612Z,4.12
2023-02-13T07:41:28.431Z,4.20
2023-02-13T07:43:55.836Z,4.26
2023-02-13T07:46:22.844Z,4.32
2023-02-13T07:48:52.644Z,4.38
2023-02-13T07:51:19.413Z,4.39
2023-02-13T07:53:46.272Z,4.48
2023-02-13T07:56:13.053Z,4.52
2023-02-13T07:58:40.985Z,4.57
2023-02-13T08:01:14.123Z,4.60
2023-02-13T08:03:41.242Z,4.67
2023-02-13T08:06:09.065Z,4.71
2023-02-13T08:08:38.246Z,4.78
2023-02-13T08:11:31.368Z,4.83
2023-02-13T08:13:58.205Z,4.92
2023-02-13T08:16:25.059Z,4.98
2023-02-13T08:18:51.960Z,5.06
2023-02-13T08:21:18.928Z,5.14
2023-02-13T08:23:45.909Z,5.22
2023-02-13T08:26:12.749Z,5.31
2023-02-13T08:28:39.629Z,5.39
2023-02-13T08:31:12.961Z,5.45
2023-02-13T08:33:41.350Z,5.56
2023-02-13T08:36:08.642Z,5.63
2023-02-13T08:38:35.396Z,5.71
2023-02-13T08:41:02.271Z,5.81
2023-02-13T08:43:29.097Z,5.90
2023-02-13T08:45:59.982Z,5.97
2023-02-13T08:48:27.603Z,6.08
2023-02-13T08:50:54.417Z,6.18
2023-02-13T08:53:21.312Z,6.27
2023-02-13T08:55:56.010Z,6.34
2023-02-13T08:58:24.270Z,6.47
2023-02-13T09:00:51.135Z,6.58
2023-02-13T09:03:18.351Z,6.69
2023-02-13T09:05:45.526Z,6.82
2023-02-13T09:08:13.625Z,6.93
2023-02-13T09:10:43.547Z,7.04
2023-02-13T09:13:10.263Z,7.10
2023-02-13T09:15:40.658Z,7.27
2023-02-13T09:18:08.090Z,7.40
2023-02-13T09:20:36.063Z,7.52
2023-02-13T09:23:04.171Z,7.65
2023-02-13T09:25:30.958Z,7.80
2023-02-13T09:27:59.727Z,7.91
2023-02-13T09:30:26.784Z,8.06
2023-02-13T09:32:55.234Z,8.19
2023-02-13T09:35:23.462Z,8.35
2023-02-13T09:37:50.289Z,8.49
2023-02-13T09:41:02.539Z,8.61
2023-02-13T09:43:34.437Z,8.76
2023-02-13T09:46:35.696Z,8.89
2023-02-13T09:49:09.570Z,9.04
2023-02-13T09:51:36.423Z,9.19
2023-02-13T09:54:06.845Z,9.32
2023-02-13T09:57:02.329Z,9.44
2023-02-13T10:00:01.471Z,9.59
2023-02-13T10:02:57.398Z,9.74
2023-02-13T10:05:57.676Z,9.87
2023-02-13T10:08:49.197Z,10.02
2023-02-13T10:11:46.802Z,10.14
2023-02-13T10:14:33.629Z,10.27
2023-02-13T10:17:07.400Z,10.39
2023-02-13T10:20:02.295Z,10.48
2023-02-13T10:22:53.289Z,10.57
2023-02-13T10:25:28.393Z,10.69
2023-02-13T10:28:13.168Z,10.78
2023-02-13T10:30:54.196Z,10.91
2023-02-13T10:33:49.401Z,11.00
2023-02-13T10:36:30.826Z,11.09
2023-02-13T10:39:09.870Z,11.20
2023-02-13T10:42:11.362Z,11.27
2023-02-13T10:45:25.362Z,11.38
2023-02-13T10:48:30.578Z,11.50
2023-02-13T10:51:21.975Z,11.60
2023-02-13T10:54:32.320Z,11.68
2023-02-13T10:57:22.145Z,11.79
2023-02-13T11:00:18.876Z,11.89
2023-02-13T11:02:53.522Z,12.06
2023-02-13T11:05:34.803Z,12.15
2023-02-13T11:08:25.706Z,12.28
2023-02-13T11:10:53.717Z,12.40
2023-02-13T11:13:26.563Z,12.50
2023-02-13T11:16:06.154Z,12.57
2023-02-13T11:18:50.037Z,12.67
2023-02-13T11:21:23.591Z,12.79
2023-02-13T11:23:53.450Z,12.88
2023-02-13T11:26:38.948Z,12.94
2023-02-13T11:29:31.651Z,13.03
2023-02-13T11:32:12.494Z,13.15
2023-02-13T11:34:39.596Z,13.26
2023-02-13T11:37:12.445Z,13.33
2023-02-13T11:39:41.443Z,13.46
2023-02-13T11:42:26.752Z,13.50
2023-02-13T11:44:59.739Z,13.59
2023-02-13T11:47:38.535Z,13.66
2023-02-13T11:50:28.168Z,13.72
2023-02-13T11:53:04.406Z,13.83
2023-02-13T11:55:38.416Z,13.91
2023-02-13T11:58:28.685Z,13.99
2023-02-13T12:01:20.364Z,14.12
2023-02-13T12:04:07.578Z,14.23
2023-02-13T12:06:39.818Z,14.37
2023-02-13T12:09:15.563Z,14.48
2023-02-13T12:11:48.431Z,14.62
2023-02-13T12:14:23.732Z,14.76
2023-02-13T12:17:04.316Z,14.89
2023-02-13T12:19:51.129Z,15.06
2023-02-13T12:22:34.995Z,15.22
2023-02-13T12:25:23.363Z,15.40
2023-02-13T12:28:31.785Z,15.58
2023-02-13T12:31:09.092Z,15.81
2023-02-13T12:33:55.836Z,16.03
2023-02-13T12:36:58.990Z,16.23
2023-02-13T12:39:34.877Z,16.48
2023-02-13T12:42:28.911Z,16.69
2023-02-13T12:45:54.001Z,16.98
2023-02-13T12:48:43.626Z,17.31
2023-02-13T12:51:22.664Z,17.67
2023-02-13T12:54:30.504Z,17.98
2023-02-13T12:57:12.529Z,18.41
2023-02-13T13:00:08.300Z,18.81
2023-02-13T13:02:59.347Z,19.24
2023-02-13T13:05:43.199Z,19.66
2023-02-13T13:08:37.869Z,20.03
2023-02-13T13:11:37.676Z,20.35
2023-02-13T13:14:22.981Z,20.67
2023-02-13T13:16:55.447Z,21.13
2023-02-13T13:19:46.628Z,21.62
2023-02-13T13:22:23.860Z,22.18
2023-02-13T13:25:20.306Z,22.86
2023-02-13T13:27:53.845Z,23.39
2023-02-13T13:30:34.429Z,23.81
2023-02-13T13:33:21.876Z,24.30
2023-02-13T13:36:12.024Z,24.79
2023-02-13T13:38:46.342Z,25.27
2023-02-13T13:41:46.067Z,25.58
2023-02-13T13:44:26.248Z,25.88
2023-02-13T13:47:15.249Z,26.20
2023-02-13T13:50:02.054Z,26.38
2023-02-13T13:52:30.904Z,26.40
2023-02-13T13:55:00.627Z,25.97
2023-02-13T13:57:40.705Z,25.21
2023-02-13T14:00:13.601Z,24.60
2023-02-13T14:02:58.594Z,23.85
2023-02-13T14:05:33.050Z,23.16
2023-02-13T14:08:04.097Z,22.55
2023-02-13T14:10:30.785Z,21.96
2023-02-13T14:12:57.806Z,21.37
2023-02-13T14:15:52.943Z,20.67
2023-02-13T14:18:25.875Z,20.21
2023-02-13T14:21:04.429Z,19.77
2023-02-13T14:23:33.460Z,19.32
2023-02-13T14:26:18.595Z,18.78
2023-02-13T14:28:50.477Z,18.42
2023-02-13T14:31:39.329Z,17.97
2023-02-13T14:34:19.309Z,17.64
2023-02-13T14:37:02.545Z,17.37
2023-02-13T14:39:34.224Z,17.15
2023-02-13T14:42:04.614Z,16.97
2023-02-13T14:44:57.883Z,16.74
2023-02-13T14:47:35.481Z,16.60
2023-02-13T14:50:04.787Z,16.48
2023-02-13T14:52:37.016Z,16.34
2023-02-13T14:55:08.894Z,16.21
2023-02-13T14:57:53.824Z,16.07
2023-02-13T15:00:32.230Z,15.99
2023-02-13T15:03:49.514Z,15.82
2023-02-13T15:06:27.597Z,15.74
2023-02-13T15:08:56.608Z,15.68
2023-02-13T15:11:42.793Z,15.59
2023-02-13T15:14:25.640Z,15.55
2023-02-13T15:17:01.850Z,15.64
2023-02-13T15:19:29.548Z,16.10
2023-02-13T15:22:02.101Z,16.63
2023-02-13T15:24:48.041Z,17.26
2023-02-13T15:27:26.652Z,17.93
2023-02-13T15:30:00.660Z,18.60
2023-02-13T15:32:33.047Z,19.27
2023-02-13T15:35:00.624Z,19.81
2023-02-13T15:37:30.497Z,20.31
2023-02-13T15:40:14.140Z,20.79
2023-02-13T15:42:41.204Z,21.33
2023-02-13T15:45:16.119Z,21.71
2023-02-13T15:47:45.320Z,22.11
2023-02-13T15:50:31.007Z,22.40
2023-02-13T15:53:00.825Z,22.69
2023-02-13T15:55:31.841Z,22.89
2023-02-13T15:58:00.957Z,23.02
2023-02-13T16:00:32.503Z,23.09
2023-02-13T16:03:02.710Z,23.13
2023-02-13T16:05:40.815Z,22.91
2023-02-13T16:08:35.236Z,22.44
2023-02-13T16:11:30.436Z,21.93
2023-02-13T16:14:10.868Z,21.53
2023-02-13T16:16:49.410Z,21.09
2023-02-13T16:19:27.657Z,20.67
2023-02-13T16:21:57.348Z,20.29
2023-02-13T16:24:26.923Z,19.85
2023-02-13T16:26:54.355Z,19.46
2023-02-13T16:29:26.264Z,19.04
2023-02-13T16:32:03.809Z,18.60
2023-02-13T16:34:31.522Z,18.24
2023-02-13T16:36:59.662Z,17.86
2023-02-13T16:39:26.504Z,17.51
2023-02-13T16:41:53.833Z,17.15
2023-02-13T16:44:31.958Z,16.81
2023-02-13T16:47:06.194Z,16.45
2023-02-13T16:49:37.909Z,16.15
2023-02-13T16:52:21.076Z,15.81
2023-02-13T16:54:57.243Z,15.54
2023-02-13T16:57:30.688Z,15.30
2023-02-13T17:00:02.416Z,15.07
2023-02-13T17:02:33.883Z,14.82
2023-02-13T17:05:10.033Z,14.56
2023-02-13T17:07:43.578Z,14.36
2023-02-13T17:10:27.182Z,14.12
2023-02-13T17:12:58.205Z,13.94
2023-02-13T17:15:29.854Z,13.76
2023-02-13T17:17:56.892Z,13.58
2023-02-13T17:20:31.292Z,13.37
2023-02-13T17:23:01.380Z,13.21
2023-02-13T17:25:33.013Z,13.05
2023-02-13T17:28:09.256Z,12.89
2023-02-13T17:30:36.330Z,12.76
2023-02-13T17:33:15.410Z,12.58
2023-02-13T17:35:42.302Z,12.48
2023-02-13T17:38:10.445Z,12.34
2023-02-13T17:40:37.871Z,12.24
2023-02-13T17:43:05.061Z,12.12
2023-02-13T17:45:34.538Z,11.99
2023-02-13T17:48:01.774Z,11.89
2023-02-13T17:50:30.316Z,11.76
2023-02-13T17:52:58.612Z,11.65
2023-02-13T17:55:29.212Z,11.53
2023-02-13T17:57:58.246Z,11.43
2023-02-13T18:00:29.668Z,11.31
2023-02-13T18:02:59.180Z,11.23
2023-02-13T18:05:33.084Z,11.11
2023-02-13T18:08:03.747Z,11.03
2023-02-13T18:10:35.775Z,10.94
2023-02-13T18:13:05.803Z,10.80
2023-02-13T18:15:43.565Z,10.71
2023-02-13T18:18:12.505Z,10.67
2023-02-13T18:20:39.373Z,10.59
2023-02-13T18:23:07.023Z,10.52
2023-02-13T18:25:36.038Z,10.44
2023-02-13T18:28:03.161Z,10.38
2023-02-13T18:30:32.377Z,10.31
2023-02-13T18:32:59.266Z,10.26
2023-02-13T18:35:26.798Z,10.19
2023-02-13T18:37:53.961Z,10.15
2023-02-13T18:40:21.509Z,10.10
2023-02-13T18:42:51.102Z,10.04
2023-02-13T18:45:18.250Z,9.98
2023-02-13T18:47:45.095Z,9.92
2023-02-13T18:50:11.993Z,9.85
2023-02-13T18:52:38.886Z,9.79
2023-02-13T18:55:10.271Z,9.71
2023-02-13T18:57:37.157Z,9.64
2023-02-13T19:00:05.712Z,9.55
2023-02-13T19:02:33.394Z,9.51
2023-02-13T19:05:01.072Z,9.42
2023-02-13T19:07:30.520Z,9.36
2023-02-13T19:09:57.288Z,9.29
2023-02-13T19:12:24.505Z,9.23
2023-02-13T19:14:51.260Z,9.15
2023-02-13T19:17:18.303Z,9.07
2023-02-13T19:19:48.294Z,9.00
2023-02-13T19:22:19.212Z,8.92
2023-02-13T19:24:46.180Z,8.87
2023-02-13T19:27:15.480Z,8.80
2023-02-13T19:29:42.334Z,8.75
2023-02-13T19:32:09.463Z,8.69
2023-02-13T19:34:36.541Z,8.63
2023-02-13T19:37:05.924Z,8.57
2023-02-13T19:39:32.682Z,8.52
2023-02-13T19:42:21.066Z,8.39
2023-02-13T19:44:49.631Z,8.37
2023-02-13T19:47:16.640Z,8.30
2023-02-13T19:49:43.631Z,8.25
2023-02-13T19:52:10.413Z,8.19
2023-02-13T19:54:37.329Z,8.16
2023-02-13T19:57:06.688Z,8.11
2023-02-13T19:59:33.505Z,8.05
2023-02-13T20:02:00.467Z,8.01
2023-02-13T20:04:27.390Z,7.95
2023-02-13T20:06:58.227Z,7.92
2023-02-13T20:09:25.260Z,7.86
2023-02-13T20:11:52.233Z,7.83
2023-02-13T20:14:21.866Z,7.79
2023-02-13T20:16:48.847Z,7.74
2023-02-13T20:19:18.981Z,7.71
2023-02-13T20:21:51.017Z,7.67
2023-02-13T20:24:17.822Z,7.63
2023-02-13T20:26:44.695Z,7.60
2023-02-13T20:29:11.820Z,7.57
2023-02-13T20:31:41.337Z,7.53
2023-02-13T20:34:09.932Z,7.48
2023-02-13T20:36:36.783Z,7.44
2023-02-13T20:39:08.682Z,7.39
2023-02-13T20:41:39.931Z,7.36
2023-02-13T20:44:13.750Z,7.31
2023-02-13T20:46:41.019Z,7.28
2023-02-13T20:49:21.815Z,7.27
2023-02-13T20:51:51.512Z,7.27
2023-02-13T20:54:19.244Z,7.25
2023-02-13T20:56:47.426Z,7.22
2023-02-13T20:59:14.260Z,7.20
2023-02-13T21:01:45.734Z,7.16
2023-02-13T21:04:14.595Z,7.14
2023-02-13T21:06:41.981Z,7.11
2023-02-13T21:09:09.934Z,7.08
2023-02-13T21:11:42.213Z,7.06
2023-02-13T21:14:13.793Z,7.04
2023-02-13T21:16:47.405Z,7.01
2023-02-13T21:19:19.236Z,6.97
2023-02-13T21:21:47.080Z,6.96
2023-02-13T21:24:22.783Z,6.92
2023-02-13T21:26:53.496Z,6.90
2023-02-13T21:29:20.482Z,6.88
2023-02-13T21:31:48.500Z,6.85
2023-02-13T21:34:17.846Z,6.82
2023-02-13T21:36:45.198Z,6.81
2023-02-13T21:39:13.506Z,6.77
2023-02-13T21:41:42.971Z,6.73
2023-02-13T21:44:18.804Z,6.70
2023-02-13T21:46:46.399Z,6.70
2023-02-13T21:49:17.998Z,6.67
2023-02-13T21:51:48.133Z,6.64
2023-02-13T21:54:17.597Z,6.62
2023-02-13T21:56:46.793Z,6.60
2023-02-13T21:59:16.951Z,6.57
2023-02-13T22:01:49.943Z,6.54
2023-02-13T22:04:17.511Z,6.53
2023-02-13T22:06:51.954Z,6.51
2023-02-13T22:09:21.018Z,6.50
2023-02-13T22:11:49.902Z,6.49
2023-02-13T22:14:19.480Z,6.48
2023-02-13T22:16:49.628Z,6.43
2023-02-13T22:19:17.200Z,6.41
2023-02-13T22:21:45.257Z,6.39
2023-02-13T22:24:12.495Z,6.39
2023-02-13T22:26:42.545Z,6.36
2023-02-13T22:29:15.941Z,6.34
2023-02-13T22:31:43.402Z,6.33
2023-02-13T22:34:27.111Z,6.31
2023-02-13T22:37:01.616Z,6.30
2023-02-13T22:39:37.302Z,6.28
2023-02-13T22:42:24.726Z,6.27
2023-02-13T22:47:53.842Z,6.25
2023-02-13T22:50:34.661Z,6.23
2023-02-13T22:53:01.739Z,6.22
2023-02-13T22:55:33.737Z,6.18
2023-02-13T22:58:03.271Z,6.18
2023-02-13T23:00:36.129Z,6.13
2023-02-13T23:03:07.780Z,6.12
2023-02-13T23:05:34.660Z,6.09
2023-02-13T23:08:11.923Z,6.08
2023-02-13T23:10:43.678Z,6.05
2023-02-13T23:13:21.145Z,6.01
2023-02-13T23:15:55.094Z,6.02
2023-02-13T23:18:26.621Z,5.99
2023-02-13T23:20:53.555Z,5.98
2023-02-13T23:23:21.003Z,5.98
2023-02-13T23:25:51.771Z,5.95
2023-02-13T23:28:23.204Z,5.95
2023-02-13T23:30:56.609Z,5.92
2023-02-13T23:33:34.452Z,5.90
2023-02-13T23:36:29.352Z,5.85
2023-02-13T23:38:56.327Z,5.88
2023-02-13T23:41:23.478Z,5.86
2023-02-13T23:43:54.703Z,5.86
2023-02-13T23:46:21.595Z,5.85
2023-02-13T23:48:48.424Z,5.84
2023-02-13T23:51:15.246Z,5.82
2023-02-13T23:53:42.193Z,5.82
2023-02-13T23:56:15.332Z,5.81
2023-02-13T23:58:42.254Z,5.79
